createdAt,value
2019-03-05T00:00:20.478Z,98666.87
2019-03-05T00:02:49.780Z,98675.63
2019-03-05T00:05:19.048Z,98670.92
2019-03-05T00:07:48.250Z,98667.46
2019-03-05T00:10:18.996Z,98673.59
2019-03-05T00:12:48.211Z,98666.62
2019-03-05T00:15:19.624Z,98659.41
2019-03-05T00:17:48.798Z,98670.84
2019-03-05T00:20:18.041Z,98663.09
2019-03-05T00:22:47.245Z,98660.42
2019-03-05T00:25:18.365Z,98660.89
2019-03-05T00:28:20.533Z,98652.28
2019-03-05T00:31:14.217Z,98661.09
2019-03-05T00:34:03.290Z,98666.00
2019-03-05T00:36:39.014Z,98668.33
2019-03-05T00:39:40.120Z,98653.84
2019-03-05T00:42:46.095Z,98649.11
2019-03-05T00:46:04.975Z,98646.12
2019-03-05T00:49:10.750Z,98652.67
2019-03-05T00:52:20.699Z,98655.16
2019-03-05T00:55:34.542Z,98652.09
2019-03-05T00:58:34.064Z,98646.02
2019-03-05T01:01:37.452Z,98665.20
2019-03-05T01:04:44.780Z,98650.23
2019-03-05T01:07:14.290Z,98650.68
2019-03-05T01:09:43.485Z,98658.62
2019-03-05T01:12:14.323Z,98658.64
2019-03-05T01:14:43.710Z,98653.81
2019-03-05T01:17:12.908Z,98656.48
2019-03-05T01:19:42.131Z,98665.20
2019-03-05T01:22:11.398Z,98683.94
2019-03-05T01:24:40.620Z,98674.28
2019-03-05T01:27:09.800Z,98688.52
2019-03-05T01:29:39.024Z,98672.88
2019-03-05T01:32:24.305Z,98693.00
2019-03-05T01:35:11.214Z,98693.91
2019-03-05T01:37:40.405Z,98678.62
2019-03-05T01:40:28.657Z,98695.19
2019-03-05T01:42:57.838Z,98692.60
2019-03-05T01:45:27.068Z,98681.05
2019-03-05T01:47:56.269Z,98698.52
2019-03-05T01:50:25.467Z,98702.92
2019-03-05T01:52:54.670Z,98688.80
2019-03-05T01:55:23.845Z,98697.54
2019-03-05T01:57:53.058Z,98708.45
2019-03-05T02:00:22.338Z,98696.23
2019-03-05T02:02:51.657Z,98705.78
2019-03-05T02:05:20.893Z,98715.73
2019-03-05T02:07:50.484Z,98706.57
2019-03-05T02:10:22.607Z,98713.58
2019-03-05T02:12:51.796Z,98715.31
2019-03-05T02:15:21.106Z,98717.12
2019-03-05T02:17:50.295Z,98703.05
2019-03-05T02:20:38.607Z,98721.06
2019-03-05T02:23:38.108Z,98707.49
2019-03-05T02:26:49.002Z,98710.02
2019-03-05T02:29:25.622Z,98715.28
2019-03-05T02:32:51.038Z,98712.69
2019-03-05T02:35:54.647Z,98720.62
2019-03-05T02:39:15.281Z,98718.02
2019-03-05T02:41:50.687Z,98717.58
2019-03-05T02:45:03.519Z,98710.14
2019-03-05T02:48:07.848Z,98712.34
2019-03-05T02:51:02.922Z,98701.38
2019-03-05T02:54:17.835Z,98699.56
2019-03-05T02:57:08.389Z,98711.38
2019-03-05T02:59:37.620Z,98707.13
2019-03-05T03:02:30.208Z,98710.17
2019-03-05T03:05:21.578Z,98707.59
2019-03-05T03:07:50.770Z,98708.03
2019-03-05T03:10:22.058Z,98700.63
2019-03-05T03:12:51.361Z,98702.39
2019-03-05T03:15:20.774Z,98704.99
2019-03-05T03:17:50.554Z,98712.86
2019-03-05T03:20:23.709Z,98698.88
2019-03-05T03:22:52.922Z,98714.20
2019-03-05T03:25:23.555Z,98708.11
2019-03-05T03:27:52.951Z,98713.70
2019-03-05T03:30:23.823Z,98713.75
2019-03-05T03:32:53.021Z,98713.80
2019-03-05T03:35:22.222Z,98714.69
2019-03-05T03:37:51.393Z,98714.27
2019-03-05T03:40:22.213Z,98715.13
2019-03-05T03:42:51.422Z,98711.69
2019-03-05T03:45:22.564Z,98727.45
2019-03-05T03:47:51.741Z,98728.78
2019-03-05T03:50:20.930Z,98724.06
2019-03-05T03:52:50.115Z,98731.48
2019-03-05T03:55:19.387Z,98735.40
2019-03-05T03:57:48.662Z,98742.45
2019-03-05T04:00:22.561Z,98737.18
2019-03-05T04:02:51.990Z,98738.09
2019-03-05T04:05:21.225Z,98750.78
2019-03-05T04:07:50.392Z,98745.94
2019-03-05T04:10:19.641Z,98759.48
2019-03-05T04:12:48.845Z,98749.77
2019-03-05T04:15:21.699Z,98769.92
2019-03-05T04:17:50.877Z,98764.28
2019-03-05T04:20:39.785Z,98768.31
2019-03-05T04:23:08.945Z,98768.42
2019-03-05T04:25:38.167Z,98766.30
2019-03-05T04:28:07.371Z,98777.56
2019-03-05T04:30:36.566Z,98782.95
2019-03-05T04:33:05.758Z,98791.32
2019-03-05T04:35:34.938Z,98783.02
2019-03-05T04:38:04.431Z,98818.41
2019-03-05T04:40:33.639Z,98807.23
2019-03-05T04:43:02.807Z,98813.09
2019-03-05T04:45:55.905Z,98807.86
2019-03-05T04:48:25.083Z,98818.88
2019-03-05T04:50:57.717Z,98819.75
2019-03-05T04:53:26.931Z,98816.31
2019-03-05T04:55:56.118Z,98816.44
2019-03-05T04:58:25.276Z,98824.80
2019-03-05T05:00:54.466Z,98830.51
2019-03-05T05:03:23.673Z,98833.18
2019-03-05T05:05:52.870Z,98837.20
2019-03-05T05:08:22.069Z,98846.81
2019-03-05T05:10:51.289Z,98837.67
2019-03-05T05:13:20.524Z,98834.14
2019-03-05T05:15:49.713Z,98835.02
2019-03-05T05:18:18.958Z,98687.22
2019-03-05T05:20:48.152Z,98852.98
2019-03-05T05:23:17.374Z,98846.44
2019-03-05T05:25:46.589Z,98841.23
2019-03-05T05:28:15.789Z,98853.41
2019-03-05T05:30:45.004Z,98855.17
2019-03-05T05:33:14.198Z,98838.62
2019-03-05T05:35:43.385Z,98860.89
2019-03-05T05:38:12.570Z,98860.89
2019-03-05T05:40:43.689Z,98862.70
2019-03-05T05:43:15.643Z,98852.65
2019-03-05T05:45:49.213Z,98865.22
2019-03-05T05:48:18.519Z,98871.78
2019-03-05T05:50:47.693Z,98866.55
2019-03-05T05:53:16.974Z,98862.69
2019-03-05T05:55:46.162Z,98874.95
2019-03-05T05:58:15.355Z,98871.05
2019-03-05T06:00:47.063Z,98878.01
2019-03-05T06:03:16.303Z,98870.13
2019-03-05T06:05:45.354Z,98859.70
2019-03-05T06:08:14.550Z,98875.81
2019-03-05T06:10:43.797Z,98873.17
2019-03-05T06:13:13.002Z,98874.41
2019-03-05T06:15:42.188Z,98871.43
2019-03-05T06:18:11.397Z,98887.44
2019-03-05T06:20:42.547Z,98877.45
2019-03-05T06:23:11.518Z,98880.94
2019-03-05T06:25:40.717Z,98896.61
2019-03-05T06:28:09.934Z,98890.52
2019-03-05T06:30:39.295Z,98893.55
2019-03-05T06:33:08.501Z,98905.28
2019-03-05T06:35:37.723Z,98902.57
2019-03-05T06:38:06.928Z,98900.39
2019-03-05T06:40:36.149Z,98901.22
2019-03-05T06:43:05.447Z,98910.33
2019-03-05T06:45:34.664Z,98908.03
2019-03-05T06:48:03.967Z,98901.80
2019-03-05T06:50:33.217Z,98901.65
2019-03-05T06:53:02.429Z,98910.44
2019-03-05T06:55:31.633Z,98918.48
2019-03-05T06:58:00.838Z,98918.41
2019-03-05T07:00:34.867Z,98923.49
2019-03-05T07:03:04.356Z,98916.87
2019-03-05T07:06:08.843Z,98923.90
2019-03-05T07:08:40.782Z,98925.61
2019-03-05T07:11:50.117Z,98914.28
2019-03-05T07:14:31.393Z,98928.08
2019-03-05T07:17:28.164Z,98933.27
2019-03-05T07:20:56.255Z,98935.66
2019-03-05T07:23:48.563Z,98930.64
2019-03-05T07:26:18.024Z,98941.70
2019-03-05T07:28:47.222Z,98948.41
2019-03-05T07:31:16.422Z,98945.00
2019-03-05T07:33:45.621Z,98946.83
2019-03-05T07:36:15.335Z,98946.83
2019-03-05T07:38:44.509Z,98947.26
2019-03-05T07:41:13.748Z,98941.09
2019-03-05T07:43:42.940Z,98941.06
2019-03-05T07:46:12.176Z,98941.00
2019-03-05T07:48:41.384Z,98950.12
2019-03-05T07:51:10.601Z,98944.87
2019-03-05T07:53:39.807Z,98956.13
2019-03-05T07:56:08.990Z,98962.25
2019-03-05T07:58:38.265Z,98966.22
2019-03-05T08:01:07.464Z,98952.77
2019-03-05T08:03:36.639Z,98954.15
2019-03-05T08:06:05.838Z,98939.73
2019-03-05T08:09:10.635Z,98948.84
2019-03-05T08:11:39.919Z,98952.61
2019-03-05T08:14:51.363Z,98952.38
2019-03-05T08:17:20.629Z,98953.20
2019-03-05T08:19:49.810Z,98967.17
2019-03-05T08:22:19.002Z,98966.17
2019-03-05T08:24:48.149Z,98965.59
2019-03-05T08:27:17.331Z,98966.72
2019-03-05T08:29:46.573Z,98971.26
2019-03-05T08:32:15.762Z,98964.48
2019-03-05T08:34:44.954Z,98992.22
2019-03-05T08:37:14.126Z,99011.69
2019-03-05T08:39:43.330Z,99000.18
2019-03-05T08:42:12.510Z,98996.88
2019-03-05T08:44:49.899Z,98991.84
2019-03-05T08:47:12.634Z,98990.14
2019-03-05T08:49:41.875Z,99001.15
2019-03-05T08:52:11.462Z,99019.13
2019-03-05T08:54:40.648Z,99025.33
2019-03-05T08:57:09.960Z,99028.86
2019-03-05T08:59:39.190Z,99040.73
2019-03-05T09:02:08.458Z,99030.33
2019-03-05T09:04:37.671Z,99029.05
2019-03-05T09:07:06.872Z,99037.81
2019-03-05T09:09:36.092Z,99043.91
2019-03-05T09:12:05.721Z,99044.78
2019-03-05T09:14:34.920Z,99038.19
2019-03-05T09:17:04.723Z,99043.52
2019-03-05T09:19:33.949Z,99035.88
2019-03-05T09:22:03.137Z,99029.61
2019-03-05T09:24:32.345Z,99033.78
2019-03-05T09:27:01.527Z,99033.58
2019-03-05T09:29:30.749Z,99033.30
2019-03-05T09:31:59.924Z,99028.55
2019-03-05T09:34:29.107Z,99028.23
2019-03-05T09:36:58.315Z,99028.41
2019-03-05T09:39:27.497Z,99037.05
2019-03-05T09:41:56.718Z,99033.56
2019-03-05T09:44:25.906Z,99042.95
2019-03-05T09:46:55.133Z,99035.75
2019-03-05T09:49:24.308Z,99042.28
2019-03-05T09:51:53.474Z,99041.70
2019-03-05T09:54:22.677Z,99047.09
2019-03-05T09:56:51.920Z,99051.66
2019-03-05T09:59:21.164Z,99039.61
2019-03-05T10:01:53.965Z,99044.34
2019-03-05T10:04:23.184Z,99045.23
2019-03-05T10:06:52.492Z,99043.63
2019-03-05T10:09:21.686Z,99060.07
2019-03-05T10:11:56.594Z,99047.82
2019-03-05T10:14:21.921Z,99071.61
2019-03-05T10:16:51.159Z,99065.99
2019-03-05T10:19:20.340Z,99073.63
2019-03-05T10:21:49.547Z,99073.92
2019-03-05T10:24:18.751Z,99068.66
2019-03-05T10:26:47.944Z,99074.66
2019-03-05T10:29:17.157Z,99069.15
2019-03-05T10:31:46.333Z,99080.51
2019-03-05T10:34:15.573Z,99076.61
2019-03-05T10:36:44.767Z,99065.75
2019-03-05T10:39:30.963Z,99078.66
2019-03-05T10:42:00.720Z,99087.97
2019-03-05T10:44:29.953Z,99098.77
2019-03-05T10:46:59.161Z,99081.61
2019-03-05T10:49:28.344Z,99083.50
2019-03-05T10:51:58.903Z,99087.89
2019-03-05T10:54:28.301Z,99088.53
2019-03-05T10:56:57.601Z,99087.09
2019-03-05T10:59:26.892Z,99091.56
2019-03-05T11:01:56.172Z,99096.02
2019-03-05T11:04:26.056Z,99094.94
2019-03-05T11:06:55.261Z,99110.71
2019-03-05T11:09:24.462Z,99111.84
2019-03-05T11:11:53.685Z,99101.69
2019-03-05T11:14:22.945Z,99113.43
2019-03-05T11:16:52.478Z,99123.66
2019-03-05T11:19:21.698Z,99111.09
2019-03-05T11:21:50.892Z,99110.07
2019-03-05T11:24:20.090Z,99117.87
2019-03-05T11:26:49.306Z,99098.45
2019-03-05T11:29:18.528Z,99113.39
2019-03-05T11:31:47.774Z,99117.55
2019-03-05T11:34:16.992Z,99127.35
2019-03-05T11:36:46.393Z,99121.98
2019-03-05T11:39:15.682Z,99128.92
2019-03-05T11:41:44.881Z,99128.12
2019-03-05T11:44:14.075Z,99129.77
2019-03-05T11:46:43.275Z,99133.83
2019-03-05T11:49:12.549Z,99137.14
2019-03-05T11:51:41.725Z,99153.47
2019-03-05T11:54:10.954Z,99137.38
2019-03-05T11:56:40.171Z,99149.26
2019-03-05T11:59:09.533Z,99150.34
2019-03-05T12:01:42.154Z,99144.19
2019-03-05T12:04:11.403Z,99154.37
2019-03-05T12:06:40.605Z,99156.84
2019-03-05T12:09:09.892Z,99155.63
2019-03-05T12:11:39.091Z,99169.35
2019-03-05T12:14:08.326Z,99171.76
2019-03-05T12:16:37.550Z,99164.13
2019-03-05T12:19:06.836Z,99177.41
2019-03-05T12:21:36.064Z,99166.74
2019-03-05T12:24:05.262Z,99169.03
2019-03-05T12:26:34.462Z,99180.90
2019-03-05T12:29:03.645Z,99166.64
2019-03-05T12:31:32.884Z,99168.18
2019-03-05T12:34:02.147Z,99163.78
2019-03-05T12:36:31.342Z,99160.08
2019-03-05T12:39:00.534Z,99173.86
2019-03-05T12:41:29.718Z,99180.95
2019-03-05T12:43:58.928Z,99180.27
2019-03-05T12:46:28.124Z,99184.09
2019-03-05T12:48:57.344Z,99180.95
2019-03-05T12:51:26.643Z,99183.86
2019-03-05T12:53:55.897Z,99186.54
2019-03-05T12:56:25.114Z,99187.03
2019-03-05T12:58:54.437Z,99184.48
2019-03-05T13:01:23.688Z,99202.59
2019-03-05T13:03:52.933Z,99206.11
2019-03-05T13:06:22.143Z,99206.74
2019-03-05T13:08:51.337Z,99210.89
2019-03-05T13:11:20.533Z,99203.84
2019-03-05T13:13:52.774Z,99221.30
2019-03-05T13:16:20.749Z,99216.23
2019-03-05T13:18:49.937Z,99218.45
2019-03-05T13:21:19.170Z,99223.31
2019-03-05T13:23:48.531Z,99228.91
2019-03-05T13:26:17.729Z,99220.70
2019-03-05T13:28:46.942Z,99228.91
2019-03-05T13:31:16.129Z,99232.20
2019-03-05T13:33:45.323Z,99233.58
2019-03-05T13:36:16.484Z,99236.48
2019-03-05T13:38:46.427Z,99240.20
2019-03-05T13:41:16.876Z,99244.49
2019-03-05T13:43:46.309Z,99249.71
2019-03-05T13:46:15.494Z,99241.83
2019-03-05T13:49:28.696Z,99247.25
2019-03-05T13:52:38.917Z,99251.87
2019-03-05T13:55:23.586Z,99249.73
2019-03-05T13:58:31.624Z,99251.28
2019-03-05T14:01:01.098Z,99256.39
2019-03-05T14:03:41.126Z,99256.27
2019-03-05T14:06:47.987Z,99261.67
2019-03-05T14:09:16.307Z,99260.62
2019-03-05T14:11:46.930Z,99260.23
2019-03-05T14:14:36.139Z,99269.59
2019-03-05T14:17:34.949Z,99260.41
2019-03-05T14:20:05.310Z,99256.48
2019-03-05T14:22:34.531Z,99250.61
2019-03-05T14:25:04.240Z,99261.84
2019-03-05T14:27:33.439Z,99265.20
2019-03-05T14:30:03.269Z,99272.16
2019-03-05T14:32:32.602Z,99277.76
2019-03-05T14:35:03.559Z,99271.95
2019-03-05T14:37:33.383Z,99284.94
2019-03-05T14:40:22.896Z,99281.05
2019-03-05T14:42:34.019Z,99281.39
2019-03-05T14:45:03.382Z,99284.09
2019-03-05T14:47:32.651Z,99279.72
2019-03-05T14:50:01.980Z,99279.20
2019-03-05T14:52:31.224Z,99283.07
2019-03-05T14:55:00.631Z,99290.41
2019-03-05T14:57:29.849Z,99286.25
2019-03-05T14:59:59.418Z,99280.12
2019-03-05T15:02:28.647Z,99293.56
2019-03-05T15:04:57.888Z,99304.20
2019-03-05T15:07:27.097Z,99299.40
2019-03-05T15:09:56.297Z,99297.63
2019-03-05T15:12:25.530Z,99304.48
2019-03-05T15:14:54.767Z,99299.94
2019-03-05T15:17:24.029Z,99300.66
2019-03-05T15:19:53.263Z,99307.51
2019-03-05T15:22:22.471Z,99310.44
2019-03-05T15:24:52.028Z,99318.39
2019-03-05T15:27:21.292Z,99316.63
2019-03-05T15:29:50.738Z,99320.17
2019-03-05T15:32:20.245Z,99322.80
2019-03-05T15:34:49.578Z,99317.00
2019-03-05T15:37:18.889Z,99322.84
2019-03-05T15:39:48.055Z,99328.01
2019-03-05T15:42:17.397Z,99331.97
2019-03-05T15:44:46.703Z,99328.43
2019-03-05T15:47:16.062Z,99324.95
2019-03-05T15:49:45.293Z,99328.76
2019-03-05T15:52:14.484Z,99334.71
2019-03-05T15:54:43.706Z,99332.70
2019-03-05T15:57:12.909Z,99337.55
2019-03-05T15:59:42.236Z,99335.44
2019-03-05T16:02:11.543Z,99344.68
2019-03-05T16:04:44.028Z,99347.00
2019-03-05T16:07:15.567Z,99339.23
2019-03-05T16:09:45.006Z,99348.91
2019-03-05T16:12:14.279Z,99350.70
2019-03-05T16:14:43.606Z,99351.15
2019-03-05T16:17:12.875Z,99350.30
2019-03-05T16:19:42.242Z,99355.23
2019-03-05T16:22:14.284Z,99365.86
2019-03-05T16:24:42.490Z,99374.38
2019-03-05T16:27:11.806Z,99368.75
2019-03-05T16:29:41.074Z,99381.17
2019-03-05T16:32:26.835Z,99386.89
2019-03-05T16:35:26.232Z,99388.76
2019-03-05T16:38:09.686Z,99402.45
2019-03-05T16:40:57.122Z,99406.94
2019-03-05T16:43:44.554Z,99407.97
2019-03-05T16:46:36.074Z,99406.73
2019-03-05T16:49:24.948Z,99414.25
2019-03-05T16:52:22.377Z,99416.50
2019-03-05T16:55:19.587Z,99431.10
2019-03-05T16:58:09.951Z,99429.86
2019-03-05T17:00:53.372Z,99432.59
2019-03-05T17:03:47.391Z,99439.26
2019-03-05T17:06:35.897Z,99441.95
2019-03-05T17:09:35.183Z,99452.23
2019-03-05T17:12:04.527Z,99454.92
2019-03-05T17:14:33.727Z,99452.36
2019-03-05T17:17:02.968Z,99458.97
2019-03-05T17:19:32.587Z,99472.62
2019-03-05T17:22:02.110Z,99477.47
2019-03-05T17:24:31.355Z,99479.67
2019-03-05T17:27:00.563Z,99484.54
2019-03-05T17:29:29.808Z,99489.84
2019-03-05T17:31:59.637Z,99487.73
2019-03-05T17:34:29.072Z,99499.19
2019-03-05T17:36:58.617Z,99492.23
2019-03-05T17:39:28.147Z,99500.64
2019-03-05T17:41:57.386Z,99505.94
2019-03-05T17:44:26.842Z,99511.25
2019-03-05T17:46:56.101Z,99516.14
2019-03-05T17:49:25.294Z,99519.70
2019-03-05T17:51:55.101Z,99517.98
2019-03-05T17:54:24.309Z,99519.80
2019-03-05T17:56:54.101Z,99532.98
2019-03-05T17:59:23.376Z,99533.02
2019-03-05T18:01:52.887Z,99542.28
2019-03-05T18:04:22.234Z,99544.49
2019-03-05T18:06:51.593Z,99545.84
2019-03-05T18:09:20.916Z,99551.16
2019-03-05T18:11:50.137Z,99562.11
2019-03-05T18:14:19.501Z,99561.27
2019-03-05T18:16:48.799Z,99566.13
2019-03-05T18:19:18.181Z,99570.95
2019-03-05T18:21:47.529Z,99573.63
2019-03-05T18:24:16.865Z,99575.39
2019-03-05T18:26:46.101Z,99588.08
2019-03-05T18:29:15.613Z,99591.14
2019-03-05T18:31:44.950Z,99594.24
2019-03-05T18:34:14.437Z,99594.68
2019-03-05T18:36:43.705Z,99592.09
2019-03-05T18:39:13.498Z,99597.77
2019-03-05T18:41:42.804Z,99596.45
2019-03-05T18:44:12.466Z,99603.88
2019-03-05T18:46:41.700Z,99599.97
2019-03-05T18:49:11.198Z,99603.45
2019-03-05T18:51:40.411Z,99610.88
2019-03-05T18:54:09.726Z,99609.56
2019-03-05T18:56:39.383Z,99613.95
2019-03-05T18:59:09.236Z,99612.63
2019-03-05T19:01:39.074Z,99613.01
2019-03-05T19:04:08.318Z,99613.44
2019-03-05T19:06:37.921Z,99616.95
2019-03-05T19:09:08.089Z,99620.44
2019-03-05T19:11:38.076Z,99616.05
2019-03-05T19:14:07.581Z,99629.13
2019-03-05T19:16:36.942Z,99629.98
2019-03-05T19:19:09.828Z,99634.75
2019-03-05T19:21:40.225Z,99637.80
2019-03-05T19:24:10.198Z,99641.70
2019-03-05T19:26:40.263Z,99654.34
2019-03-05T19:29:10.384Z,99653.46
2019-03-05T19:31:40.711Z,99658.27
2019-03-05T19:34:11.587Z,99653.90
2019-03-05T19:36:41.586Z,99658.26
2019-03-05T19:39:11.255Z,99658.26
2019-03-05T19:41:40.922Z,99667.43
2019-03-05T19:44:11.634Z,99665.69
2019-03-05T19:46:42.100Z,99667.87
2019-03-05T19:49:12.156Z,99665.23
2019-03-05T19:51:42.250Z,99664.34
2019-03-05T19:54:12.702Z,99664.80
2019-03-05T19:56:42.535Z,99667.40
2019-03-05T19:59:13.236Z,99663.00
2019-03-05T20:01:47.867Z,99671.67
2019-03-05T20:04:18.463Z,99674.73
2019-03-05T20:06:48.391Z,99672.08
2019-03-05T20:09:24.189Z,99678.61
2019-03-05T20:11:54.624Z,99680.30
2019-03-05T20:14:24.795Z,99684.20
2019-03-05T20:16:54.988Z,99687.69
2019-03-05T20:19:24.965Z,99685.92
2019-03-05T20:21:55.187Z,99690.27
2019-03-05T20:24:25.136Z,99683.69
2019-03-05T20:26:56.033Z,99692.39
2019-03-05T20:29:25.961Z,99687.11
2019-03-05T20:31:55.841Z,99691.47
2019-03-05T20:34:25.532Z,99703.67
2019-03-05T20:36:55.203Z,99702.31
2019-03-05T20:39:25.430Z,99707.95
2019-03-05T20:41:55.316Z,99701.39
2019-03-05T20:44:25.520Z,99702.68
2019-03-05T20:46:56.028Z,99706.59
2019-03-05T20:49:25.828Z,99702.66
2019-03-05T20:51:55.532Z,99704.36
2019-03-05T20:54:26.305Z,99706.52
2019-03-05T20:56:57.175Z,99716.05
2019-03-05T20:59:26.605Z,99714.28
2019-03-05T21:01:55.837Z,99716.43
2019-03-05T21:04:25.618Z,99724.25
2019-03-05T21:06:55.206Z,99724.25
2019-03-05T21:09:25.250Z,99541.64
2019-03-05T21:11:54.767Z,99729.48
2019-03-05T21:14:24.383Z,99731.65
2019-03-05T21:16:54.059Z,99742.96
2019-03-05T21:19:23.990Z,99746.45
2019-03-05T21:21:53.600Z,99746.44
2019-03-05T21:24:23.632Z,99746.84
2019-03-05T21:26:52.977Z,99745.54
2019-03-05T21:29:22.354Z,99746.40
2019-03-05T21:31:51.652Z,99750.77
2019-03-05T21:34:20.917Z,99757.71
2019-03-05T21:36:50.325Z,99761.19
2019-03-05T21:39:20.290Z,99758.57
2019-03-05T21:41:49.694Z,99758.13
2019-03-05T21:44:18.980Z,99758.98
2019-03-05T21:46:48.510Z,99756.80
2019-03-05T21:49:17.900Z,99759.39
2019-03-05T21:51:47.335Z,99757.64
2019-03-05T21:54:16.638Z,99761.12
2019-03-05T21:56:45.909Z,99760.69
2019-03-05T21:59:15.189Z,99768.95
2019-03-05T22:01:44.425Z,99758.03
2019-03-05T22:04:13.669Z,99762.83
2019-03-05T22:06:42.919Z,99767.16
2019-03-05T22:09:12.159Z,99759.72
2019-03-05T22:11:41.725Z,99758.80
2019-03-05T22:14:10.963Z,99762.66
2019-03-05T22:16:40.150Z,99758.30
2019-03-05T22:19:09.352Z,99757.42
2019-03-05T22:21:38.686Z,99768.75
2019-03-05T22:24:08.121Z,99767.88
2019-03-05T22:26:37.322Z,99770.05
2019-03-05T22:29:06.524Z,99776.61
2019-03-05T22:31:35.752Z,99775.30
2019-03-05T22:34:04.932Z,99776.61
2019-03-05T22:36:34.215Z,99779.63
2019-03-05T22:39:04.595Z,99773.09
2019-03-05T22:41:33.836Z,99773.09
2019-03-05T22:44:03.021Z,99775.67
2019-03-05T22:46:32.644Z,99779.15
2019-03-05T22:49:01.920Z,99777.39
2019-03-05T22:51:31.112Z,99780.88
2019-03-05T22:54:00.329Z,99781.72
2019-03-05T22:56:29.528Z,99782.13
2019-03-05T22:58:58.737Z,99785.14
2019-03-05T23:01:37.206Z,99781.61
2019-03-05T23:04:06.729Z,99788.98
2019-03-05T23:06:36.543Z,99786.73
2019-03-05T23:11:52.199Z,99785.39
2019-03-05T23:14:21.915Z,99785.77
2019-03-05T23:16:51.127Z,99782.28
2019-03-05T23:19:20.471Z,99783.11
2019-03-05T23:21:49.676Z,99787.89
2019-03-05T23:24:18.865Z,99785.67
2019-03-05T23:26:48.088Z,99788.69
2019-03-05T23:29:18.357Z,99791.70
2019-03-05T23:31:47.688Z,99792.55
2019-03-05T23:34:18.431Z,99792.09
2019-03-05T23:36:47.845Z,99797.77
2019-03-05T23:39:17.905Z,99805.17
2019-03-05T23:41:47.094Z,99802.54
2019-03-05T23:44:16.399Z,99799.48
2019-03-05T23:46:45.574Z,99806.44
2019-03-05T23:49:14.775Z,99803.70
2019-03-05T23:51:43.975Z,99801.54
2019-03-05T23:54:13.181Z,99798.48
2019-03-05T23:56:42.373Z,99795.82
2019-03-05T23:59:11.558Z,99789.72
